Pavel Masopust

Chefscout - Viktoria Plzen
22 Aug 2027
Sonntag
Verarbeitung

Persönlichkeit

Anpassungsfähigkeit (10) Ehrgeiz (20) Kontroverse (19) Loyalität (16) Druck (13) Professionalität (18) Fairness (17) Temperament (8)

Profil

Trainerstil Demokratisch
Lizenz Kontinentale B
Entschlossenheit 5
Menschenführung 7
Motivation 10
Disziplin 8
Arbeitszufriedenheit
100%
Ermüdung
0%
Rolle Chefscout
Gehalt 85.0K p/W
Vertrag 14.03.2029

Leistung

Verhalten Gut
Trainingseffektivität
51%
Spielerentwicklung
40%
Verletzungsprävention
40%
Taktische Umsetzung
50%

Letzte Ereignisse

Spieler begutachtet jetzt
Nahm an einer Scouting-Besprechung teil jetzt
Empfahl ein Transferziel jetzt
Empfahl ein Transferziel jetzt
Empfahl ein Transferziel jetzt
Nahm an einer Scouting-Besprechung teil 7T her
Spieler begutachtet 7T her
Spieler begutachtet 7T her

Aktuell beobachtet

111
Spieler Verein Status Fähigkeit Vertrauen Beobachtet Zuletzt beobachtet Letzte Stimme
Agustín Medina Lanús Aktiv 113 / 125 40% 1 16.08.2027 -
Gideon Manaseh Ikorodu City Aktiv 90 / 96 40% 1 16.08.2027 -
Pedro Vian Seewald Arzignano Aktiv 96 / 108 40% 1 16.08.2027 -
Eliás Montiel Athletic Bilbao Aktiv 135 / 138 40% 1 13.08.2027 -
Agustín De la Cuesta Racing Aktiv 118 / 114 40% 1 13.08.2027 -
Mattia Puzone Siracusa Aktiv 106 / 101 40% 1 13.08.2027 -
Buba Sangaré Elche Aktiv 128 / 122 40% 6 10.08.2027 -
Davide Bartesaghi AC Milan Aktiv 135 / 142 40% 2 10.08.2027 -
Nnamdi Obafemi Remo Stars Aktiv 104 / 96 40% 1 10.08.2027 -
Joe Knight Stevenage Aktiv 106 / 103 40% 6 09.08.2027 -
Gady Beyuku Modena Aktiv 115 / 116 40% 6 09.08.2027 -
Rafael Vargas Cortulua Aktiv 86 / 85 40% 2 09.08.2027 -
Mohamadou Kanté West Ham United Aktiv 123 / 131 40% 2 09.08.2027 -
Rayan Bournemouth Aktiv 142 / 145 40% 2 09.08.2027 -
Fabijan Krivak Sigma Olomouc Aktiv 111 / 124 79% 1 09.08.2027 Befürworten
Honest Ahanor Fiorentina Aktiv 136 / 131 40% 1 09.08.2027 -
Alessio Insignito Spezia Aktiv 96 / 106 40% 3 07.08.2027 -
Caleb Yirenkyi Coventry City Aktiv 145 / 139 40% 6 07.08.2027 -
Jaydee Canvot Crystal Palace Aktiv 135 / 139 40% 1 07.08.2027 -
Ismaël Baouf Cambuur Aktiv 116 / 137 40% 2 06.08.2027 -
Jenson Jones Peterborough United Aktiv 99 / 113 40% 3 06.08.2027 -
Mats Egbring Heerenveen Aktiv 107 / 117 40% 3 05.08.2027 -
Kazunari Kita Real Sociedad Aktiv 101 / 110 40% 4 05.08.2027 -
Mfundo Vilakazi Kaizer Chiefs Aktiv 121 / 111 40% 5 03.08.2027 -
Lander Astiazarán Real Sociedad Aktiv 113 / 126 40% 4 03.08.2027 -
Ezra Mayers West Ham United Aktiv 118 / 125 40% 2 03.08.2027 -
Oscar Schwartau Norwich City Aktiv 129 / 128 40% 2 03.08.2027 -
Christ Inao Oulaï Fiorentina Aktiv 143 / 141 40% 2 03.08.2027 -
Chibueze Oputa Rangers International Aktiv 82 / 99 40% 1 03.08.2027 -
Luke Baartman Ghazl El Mahalla Aktiv 106 / 125 40% 3 02.08.2027 -
Gorka Gorosabel Real Sociedad Aktiv 115 / 116 40% 6 31.07.2027 -
Ethan Williams Peterborough United Aktiv 120 / 121 40% 3 30.07.2027 -
Ollie Scarles West Ham United Aktiv 132 / 132 40% 2 30.07.2027 -
Simone Kosijer Triestina Aktiv 100 / 112 40% 3 28.07.2027 -
Bazoumana Touré Newcastle United Aktiv 138 / 142 40% 1 28.07.2027 -
Othmane Maamma Watford Aktiv 131 / 141 40% 2 26.07.2027 -
Jonathan Bland Barnsley Aktiv 112 / 118 40% 4 24.07.2027 -
Dylan Lawlor Cardiff City Aktiv 117 / 123 40% 2 24.07.2027 -
Gilberto Mora AC Milan Aktiv 135 / 145 40% 3 24.07.2027 -
Jay Robinson Southampton Aktiv 129 / 137 40% 1 24.07.2027 -
Afriyie Sulemana Hasaacas Aktiv 97 / 86 40% 1 24.07.2027 -
Harrison Bettoni Wigan Athletic Aktiv 92 / 93 40% 4 22.07.2027 -
Sidiki Chérif Coventry City Aktiv 130 / 127 40% 2 22.07.2027 -
Joseph Opoku Swansea City Aktiv 119 / 127 40% 3 21.07.2027 -
Chris Rigg Sunderland Aktiv 133 / 136 40% 1 21.07.2027 -
Duarte Cunha Porto Aktiv 99 / 96 40% 1 21.07.2027 -
Calum Agius Crewe Alexandra Aktiv 102 / 104 40% 4 20.07.2027 -
Riley Owen Bristol Rovers Aktiv 106 / 104 40% 11 18.07.2027 -
André Miranda Porto Aktiv 109 / 111 40% 5 18.07.2027 -
Daniel Banjaqui Benfica Aktiv 116 / 133 40% 2 16.07.2027 -
Alessandro Ventre Vis Pesaro Aktiv 94 / 93 40% 2 14.07.2027 -
Jack Shorrock Port Vale Aktiv 91 / 94 40% 1 14.07.2027 -
Morgan Manyama SuperSport United Aktiv 109 / 129 40% 3 11.07.2027 -
Mateus Mide Porto Aktiv 101 / 102 40% 1 11.07.2027 -
Mattia Mannini Juve Stabia Aktiv 116 / 124 40% 1 11.07.2027 -
Joel Orlando Almagro Aktiv 119 / 104 40% 1 10.07.2027 -
George Paaku Hearts of Oak Aktiv 81 / 108 40% 2 09.07.2027 -
Paulo Cardoso Sporting CP Aktiv 97 / 95 40% 1 09.07.2027 -
Asanele Bonani Chippa United Aktiv 86 / 115 40% 1 09.07.2027 -
Che Gardner Newport County Aktiv 85 / 92 40% 2 08.07.2027 -
Paulo Iago Sporting CP Aktiv 99 / 103 40% 2 08.07.2027 -
Olalekan Adeleke Remo Stars Aktiv 98 / 110 40% 1 08.07.2027 -
Rhys Chadwick Peterborough United Aktiv 98 / 115 40% 1 08.07.2027 -
Ryan Oné Sheffield United Aktiv 110 / 116 40% 1 07.07.2027 -
Isaac England Shrewsbury Town Aktiv 85 / 92 40% 3 05.07.2027 -
Christian Baba Liberty Professionals Aktiv 89 / 101 40% 1 05.07.2027 -
Salvador Blopá Sporting CP Aktiv 124 / 132 40% 2 04.07.2027 -
Teo Rodríguez Pagano San Lorenzo Aktiv 122 / 137 40% 1 01.07.2027 -
Diego Rossi Forli Aktiv 88 / 84 40% 1 30.06.2027 -
Manu Rodríguez Gijón Aktiv 111 / 120 40% 1 29.06.2027 -
Ishmael Addo Heart of Lions Aktiv 76 / 109 40% 2 23.06.2027 -
Sheldon Dinesh Stockport County Aktiv 93 / 102 40% 1 22.06.2027 -
Sead Hakšabanović Anderlecht Aktiv 119 / 119 66% 1 01.06.2027 Befürworten
Florin Bancu Utrecht Aktiv 124 / 124 68% 1 01.06.2027 Befürworten
Cristian Espinoza Nashville SC Aktiv 138 / 120 40% 3 31.01.2027 -
Luis Milla Como Aktiv 151 / 158 40% 3 31.01.2027 -
Ryan Gauld Vancouver Whitecaps Aktiv 138 / 140 40% 2 31.01.2027 -
Oleksandr Zinchenko Dynamo Kyiv Aktiv 153 / 136 40% 3 30.01.2027 -
Ola Brynhildsen Bodo/Glimt Aktiv 122 / 144 40% 1 30.01.2027 -
Vadym Sydun Epicentr Aktiv 89 / 95 40% 1 29.01.2027 -
Ahmed Khaled Paralimni Aktiv 83 / 106 40% 1 29.01.2027 -
Florian Grillitsch Frosinone Aktiv 132 / 143 40% 1 28.01.2027 -
Luis Chávez Dinamo Moscow Aktiv 127 / 130 40% 1 26.01.2027 -
Hany Mukhtar Nashville SC Aktiv 139 / 132 40% 1 26.01.2027 -
Iqraam Rayners Mamelodi Sundowns Aktiv 141 / 136 40% 3 25.01.2027 -
Jack Harrison New England Revolution Aktiv 138 / 111 40% 1 25.01.2027 -
Eduard Löwen San Jose Earthquakes Aktiv 128 / 121 40% 1 25.01.2027 -
Emam Ashour Al Ahly Aktiv 147 / 117 40% 4 24.01.2027 -
Patrick Berg Bodo/Glimt Aktiv 135 / 127 40% 2 24.01.2027 -
Miguel Almirón Atlanta United FC Aktiv 135 / 151 40% 1 24.01.2027 -
Martin Cedidla Jablonec Aktiv 128 / 133 40% 2 23.01.2027 -
Harrison Reed Fulham Aktiv 129 / 129 40% 1 23.01.2027 -
Marlon Gomes Shakhtar Aktiv 133 / 136 40% 1 23.01.2027 -
Lucas Olaza Krasnodar Aktiv 131 / 134 40% 1 21.01.2027 -
Philip Onyedika MFK Skalica Aktiv 85 / 99 40% 1 20.01.2027 -
Iwan Morgan Grimsby Town Aktiv 112 / 123 40% 1 20.01.2027 -
Marcos López San Martín Aktiv 131 / 144 40% 1 20.01.2027 -
Alan Lescano Argentinos Juniors Aktiv 124 / 130 40% 1 20.01.2027 -
Anthony Martial AC Milan Aktiv 132 / 135 40% 1 19.01.2027 -
Alexandr Chernikov Krasnodar Aktiv 137 / 122 40% 1 19.01.2027 -
Kady Borges Qarabag Aktiv 125 / 136 40% 1 17.01.2027 -
Zizo Al Ahly Aktiv 136 / 112 40% 1 14.01.2027 -
Pedro Henrique Shakhtar Aktiv 132 / 139 40% 1 12.01.2027 -
Andile Zwane RC Lens Aktiv 124 / 124 67% 1 11.01.2027 Befürworten
Andy Irving Sparta Prague Aktiv 126 / 142 40% 1 11.01.2027 -
Filip Kubala Banik Ostrava Aktiv 126 / 123 40% 1 31.08.2026 Mehr Infos nötig
Alex Valera Universitario Aktiv 119 / 140 40% 1 24.08.2026 -
Bruno Damiani Philadelphia Union Aktiv 99 / 109 40% 1 24.08.2026 -
Eric Ramírez Carabobo Aktiv 104 / 119 40% 1 19.08.2026 -
Nico López Platense Aktiv 123 / 127 40% 1 01.08.2026 -
Andrey Estupiñán Millonarios Aktiv 108 / 140 40% 1 01.08.2026 -